Time;durP1;ratioP1;P1;durP2;ratioP2;P2;SDS_P1;SDS_P2;PMS_P1;PMS_P2;Temp;Humidity;BMP_temperature;BMP_pressure;BME280_temperature;BME280_humidity;BME280_pressure;Samples;Min_cycle;Max_cycle;Signal;HPM_P1;HPM_P2
2023/01/21 00:02:06;;;;;;;22.13;15.90;;;15.30;63.20;;;;;;4018312;29;20064;-61
2023/01/21 00:04:48;;;;;;;21.52;17.15;;;15.30;63.40;;;;;;4018195;29;20413;-61
2023/01/21 00:07:29;;;;;;;22.75;16.83;;;15.30;63.10;;;;;;4019246;29;20052;-61
2023/01/21 00:10:11;;;;;;;22.20;15.88;;;15.30;63.10;;;;;;4018862;29;20105;-61
2023/01/21 00:12:51;;;;;;;22.52;17.27;;;15.30;63.30;;;;;;4019099;29;20563;-61
2023/01/21 00:15:32;;;;;;;20.70;15.52;;;15.30;63.40;;;;;;4018780;29;20057;-61
2023/01/21 00:18:14;;;;;;;21.60;15.90;;;15.40;63.50;;;;;;4019101;29;20145;-61
2023/01/21 00:20:56;;;;;;;23.13;15.48;;;15.40;63.30;;;;;;4015777;29;20149;-61
2023/01/21 00:23:37;;;;;;;20.98;16.67;;;15.40;63.20;;;;;;4019045;29;20056;-61
2023/01/21 00:26:18;;;;;;;22.40;15.75;;;15.30;63.30;;;;;;4018737;29;20064;-61
2023/01/21 00:28:59;;;;;;;22.52;15.57;;;15.30;63.50;;;;;;4007280;29;20186;-62
2023/01/21 00:31:40;;;;;;;21.58;15.75;;;15.20;63.70;;;;;;4003725;29;20061;-62
2023/01/21 00:34:21;;;;;;;22.98;16.42;;;15.20;64.10;;;;;;4003457;29;20646;-62
2023/01/21 00:37:03;;;;;;;23.15;16.33;;;15.20;64.30;;;;;;4003452;29;20049;-62
2023/01/21 00:39:44;;;;;;;23.65;16.38;;;15.30;64.00;;;;;;4014364;29;20064;-61
2023/01/21 00:42:26;;;;;;;22.73;15.93;;;15.30;63.70;;;;;;4018577;29;20056;-61
2023/01/21 00:45:09;;;;;;;22.45;16.00;;;15.40;63.70;;;;;;4003899;29;20078;-62
2023/01/21 00:47:49;;;;;;;22.10;16.10;;;15.50;63.40;;;;;;4017905;29;20076;-61
2023/01/21 00:50:30;;;;;;;22.75;15.82;;;15.40;63.20;;;;;;4003324;29;20060;-62
2023/01/21 00:53:13;;;;;;;21.35;15.70;;;15.40;64.10;;;;;;4003532;29;20512;-62
2023/01/21 00:55:58;;;;;;;21.88;16.02;;;15.40;63.40;;;;;;4003398;29;20068;-62
2023/01/21 00:58:39;;;;;;;21.40;15.68;;;15.30;63.70;;;;;;4014869;29;20080;-62
2023/01/21 01:01:21;;;;;;;23.15;16.98;;;15.20;64.00;;;;;;4018401;29;20055;-61
2023/01/21 01:04:04;;;;;;;23.27;16.48;;;15.20;64.20;;;;;;4018306;29;20182;-62
2023/01/21 01:06:44;;;;;;;22.27;16.42;;;15.20;64.20;;;;;;4017492;29;20182;-61
2023/01/21 01:09:26;;;;;;;22.60;15.75;;;15.20;65.00;;;;;;4017915;29;20072;-62
2023/01/21 01:12:08;;;;;;;21.80;16.00;;;15.20;64.10;;;;;;4018003;29;20513;-62
2023/01/21 01:14:48;;;;;;;21.13;16.08;;;15.20;64.10;;;;;;4018221;29;20060;-61
2023/01/21 01:17:29;;;;;;;22.02;16.42;;;15.30;64.00;;;;;;4002988;29;20210;-62
2023/01/21 01:20:11;;;;;;;29.48;19.38;;;15.30;63.80;;;;;;4002764;29;20114;-61
2023/01/21 01:22:52;;;;;;;29.92;20.42;;;15.30;63.70;;;;;;4002961;29;20537;-62
2023/01/21 01:25:36;;;;;;;33.17;22.10;;;15.40;63.70;;;;;;4004451;29;20191;-62
2023/01/21 01:28:17;;;;;;;28.48;18.67;;;15.40;63.30;;;;;;4006264;29;20060;-62
2023/01/21 01:30:58;;;;;;;26.15;18.73;;;15.40;63.20;;;;;;4017967;29;20414;-61
2023/01/21 01:33:39;;;;;;;;;;;15.50;63.40;;;;;;4018426;29;20048;-62
2023/01/21 01:36:22;;;;;;;26.07;18.70;;;15.40;64.10;;;;;;4017776;29;20406;-62
2023/01/21 01:39:03;;;;;;;29.30;19.58;;;15.40;63.40;;;;;;4017650;29;20064;-62
2023/01/21 01:41:46;;;;;;;25.23;17.98;;;15.40;63.50;;;;;;3991423;29;20102;-61
2023/01/21 01:44:54;;;;;;;24.10;17.60;;;15.30;63.40;;;;;;4009071;29;20056;-62
2023/01/21 01:47:39;;;;;;;23.70;17.13;;;15.20;63.10;;;;;;4016260;29;20060;-62
2023/01/21 01:50:20;;;;;;;26.13;17.27;;;15.20;63.80;;;;;;4017561;29;20073;-61
2023/01/21 01:53:02;;;;;;;23.33;16.70;;;15.10;64.10;;;;;;4017547;29;20141;-61
2023/01/21 01:55:43;;;;;;;25.58;17.10;;;15.10;64.00;;;;;;4017311;29;20064;-61
2023/01/21 01:58:26;;;;;;;25.70;17.65;;;15.20;64.20;;;;;;4016555;29;20085;-62
2023/01/21 02:01:07;;;;;;;24.10;17.90;;;15.30;63.80;;;;;;4017500;29;20532;-61
2023/01/21 02:03:57;;;;;;;22.73;16.88;;;15.40;63.50;;;;;;4017640;29;20141;-62
2023/01/21 02:06:39;;;;;;;22.17;15.70;;;15.60;63.10;;;;;;4002219;29;20045;-62
2023/01/21 02:09:20;;;;;;;25.48;17.30;;;15.60;62.80;;;;;;4011415;29;20052;-62
2023/01/21 02:12:04;;;;;;;20.55;16.08;;;15.70;62.60;;;;;;4017382;29;20799;-61
2023/01/21 02:14:50;;;;;;;21.67;16.85;;;15.70;63.40;;;;;;4017442;29;20138;-61
2023/01/21 02:17:45;;;;;;;24.15;16.77;;;15.80;62.30;;;;;;4002235;29;20158;-61
2023/01/21 02:21:03;;;;;;;23.45;16.30;;;15.90;61.70;;;;;;4001722;29;20562;-62
2023/01/21 02:24:09;;;;;;;22.50;16.35;;;15.90;61.30;;;;;;4010628;29;20512;-62
2023/01/21 02:27:26;;;;;;;24.00;16.73;;;15.80;61.50;;;;;;4016505;29;20088;-61
2023/01/21 02:30:44;;;;;;;23.17;16.75;;;15.80;61.70;;;;;;4017229;29;20063;-61
2023/01/21 02:33:59;;;;;;;21.88;16.67;;;15.90;61.90;;;;;;4017095;29;20416;-61
2023/01/21 02:36:51;;;;;;;23.77;17.63;;;15.90;61.20;;;;;;4016082;29;20186;-61
2023/01/21 02:39:55;;;;;;;21.67;16.77;;;15.90;61.70;;;;;;4016514;29;20072;-61
2023/01/21 02:42:44;;;;;;;21.83;16.40;;;15.80;61.60;;;;;;4016035;29;20061;-62
2023/01/21 02:45:33;;;;;;;23.40;16.08;;;15.80;61.80;;;;;;4016851;29;20056;-62
2023/01/21 02:48:17;;;;;;;20.17;15.48;;;15.70;61.90;;;;;;4016899;29;20060;-61
2023/01/21 02:51:00;;;;;;;20.08;15.77;;;15.60;62.10;;;;;;4016075;29;20220;-62
2023/01/21 02:53:41;;;;;;;22.40;15.75;;;15.60;62.50;;;;;;4016803;29;20053;-61
2023/01/21 02:56:26;;;;;;;21.60;15.85;;;15.50;62.80;;;;;;4016280;29;20073;-61
2023/01/21 02:59:08;;;;;;;21.20;15.98;;;15.60;62.80;;;;;;4016360;29;20201;-61
2023/01/21 03:01:59;;;;;;;21.10;15.70;;;15.60;62.60;;;;;;4005035;29;20124;-61
2023/01/21 03:04:52;;;;;;;22.27;16.25;;;15.60;62.40;;;;;;4016739;29;20253;-61
2023/01/21 03:07:36;;;;;;;23.67;16.85;;;15.70;62.40;;;;;;4016298;29;20181;-60
2023/01/21 03:10:28;;;;;;;20.38;15.85;;;15.70;62.40;;;;;;4015902;29;20114;-61
2023/01/21 03:16:55;;;;;;;23.38;16.27;;;15.70;62.30;;;;;;4016485;29;20060;-61
2023/01/21 03:19:21;;;;;;;20.45;16.10;;;15.50;62.60;;;;;;4016533;29;20503;-61
2023/01/21 03:22:05;;;;;;;29.15;17.77;;;15.40;63.00;;;;;;4016083;29;20052;-61
2023/01/21 03:24:51;;;;;;;24.13;17.10;;;15.30;63.30;;;;;;4016096;29;20421;-61
2023/01/21 03:27:34;;;;;;;26.65;18.17;;;15.20;63.60;;;;;;4016510;29;20400;-62
2023/01/21 03:30:16;;;;;;;24.38;17.77;;;15.30;64.00;;;;;;4016561;29;20053;-61
2023/01/21 03:32:58;;;;;;;26.23;18.90;;;15.30;63.90;;;;;;4016654;29;20077;-61
2023/01/21 03:35:43;;;;;;;26.75;19.20;;;15.40;63.50;;;;;;4016058;29;20500;-62
2023/01/21 03:38:30;;;;;;;27.95;18.63;;;15.50;63.20;;;;;;4016531;29;20393;-61
2023/01/21 03:41:17;;;;;;;25.85;18.13;;;15.60;62.80;;;;;;4016561;29;20189;-61
2023/01/21 03:43:58;;;;;;;26.27;19.45;;;15.70;62.50;;;;;;4016322;29;20052;-60
2023/01/21 03:46:45;;;;;;;26.25;18.17;;;15.70;62.40;;;;;;4015260;29;20063;-61
2023/01/21 03:49:32;;;;;;;30.33;19.73;;;15.70;62.30;;;;;;4016419;29;20053;-62
2023/01/21 03:52:14;;;;;;;26.00;18.10;;;15.70;62.10;;;;;;4016540;29;20190;-61
2023/01/21 03:54:55;;;;;;;27.55;18.40;;;15.70;62.30;;;;;;4016307;29;20506;-61
2023/01/21 03:57:37;;;;;;;26.38;18.45;;;15.60;62.50;;;;;;4016591;29;20055;-61
2023/01/21 04:00:19;;;;;;;27.55;18.70;;;15.50;62.70;;;;;;4016421;29;20129;-61
2023/01/21 04:02:59;;;;;;;;;;;15.50;63.10;;;;;;4016918;29;20063;-61
2023/01/21 04:05:40;;;;;;;27.13;18.02;;;15.60;63.30;;;;;;4015610;29;20060;-61
2023/01/21 04:08:21;;;;;;;25.38;18.15;;;15.60;62.90;;;;;;4015513;29;20052;-62
2023/01/21 04:11:02;;;;;;;26.98;18.25;;;15.70;62.50;;;;;;4004448;29;20354;-61
2023/01/21 04:13:44;;;;;;;27.33;18.75;;;15.70;62.50;;;;;;4015998;29;20073;-61
2023/01/21 04:16:25;;;;;;;25.98;18.38;;;15.70;62.20;;;;;;4000853;29;20064;-61
2023/01/21 04:19:05;;;;;;;26.77;19.23;;;15.70;62.20;;;;;;4009585;29;20199;-63
2023/01/21 04:21:46;;;;;;;27.48;19.15;;;15.70;62.00;;;;;;4017832;29;20068;-63
2023/01/21 04:24:27;;;;;;;27.52;18.50;;;15.70;63.00;;;;;;4018347;29;20101;-65
2023/01/21 04:27:08;;;;;;;25.63;17.67;;;15.70;62.30;;;;;;3991739;29;20044;-62
2023/01/21 04:29:50;;;;;;;27.77;18.25;;;15.70;62.30;;;;;;4003251;29;20517;-62
2023/01/21 04:32:31;;;;;;;29.33;18.80;;;15.80;63.10;;;;;;4005750;29;20145;-62
2023/01/21 04:35:12;;;;;;;25.13;18.63;;;15.80;62.10;;;;;;4018166;29;20221;-61
2023/01/21 04:37:53;;;;;;;29.05;19.48;;;15.80;61.80;;;;;;4018690;29;20088;-61
2023/01/21 04:40:34;;;;;;;29.73;19.42;;;15.90;61.70;;;;;;4018669;29;20072;-62
2023/01/21 04:43:14;;;;;;;29.33;18.92;;;15.90;62.40;;;;;;4019000;29;20057;-62
2023/01/21 04:45:57;;;;;;;26.25;18.58;;;15.80;61.50;;;;;;4017796;29;20053;-62
2023/01/21 04:48:38;;;;;;;30.60;19.90;;;15.80;61.60;;;;;;4006927;29;20060;-61
2023/01/21 04:51:18;;;;;;;29.13;19.35;;;15.80;61.80;;;;;;4018590;29;20064;-62
2023/01/21 04:53:59;;;;;;;27.83;19.15;;;15.70;62.00;;;;;;4018572;29;20057;-62
2023/01/21 04:56:40;;;;;;;29.13;20.03;;;15.60;63.30;;;;;;4003319;29;20414;-61
2023/01/21 04:59:21;;;;;;;30.63;20.02;;;15.70;62.50;;;;;;4018451;29;20288;-62
2023/01/21 05:02:03;;;;;;;28.92;19.13;;;15.60;62.50;;;;;;4018401;29;20067;-61
2023/01/21 05:04:43;;;;;;;30.95;19.73;;;15.60;62.40;;;;;;4008332;29;20117;-61
2023/01/21 05:07:24;;;;;;;30.75;20.48;;;15.60;62.60;;;;;;4018218;29;20065;-62
2023/01/21 05:10:06;;;;;;;27.65;18.48;;;15.50;62.90;;;;;;4018489;29;20048;-61
2023/01/21 05:12:47;;;;;;;28.27;19.63;;;15.60;63.00;;;;;;4003106;29;20065;-61
2023/01/21 05:15:28;;;;;;;30.15;19.08;;;15.70;62.80;;;;;;4013517;29;20056;-62
2023/01/21 05:18:10;;;;;;;28.45;18.73;;;15.70;62.50;;;;;;4017026;29;20083;-61
2023/01/21 05:20:51;;;;;;;30.23;20.35;;;15.70;62.30;;;;;;4005880;29;20064;-62
2023/01/21 05:23:32;;;;;;;26.77;17.67;;;15.70;62.40;;;;;;4006593;29;20056;-62
2023/01/21 05:26:13;;;;;;;30.27;19.15;;;15.80;62.30;;;;;;4017918;29;20128;-61
2023/01/21 05:28:54;;;;;;;26.60;18.75;;;15.80;62.20;;;;;;4017805;29;20145;-61
2023/01/21 05:31:35;;;;;;;30.42;19.73;;;15.80;62.40;;;;;;4017965;29;20056;-61
2023/01/21 05:34:18;;;;;;;26.92;16.98;;;15.70;62.30;;;;;;4006081;29;20060;-61
2023/01/21 05:36:59;;;;;;;28.75;18.92;;;15.80;63.00;;;;;;4017833;29;20064;-62
2023/01/21 05:39:39;;;;;;;29.23;19.57;;;15.80;62.00;;;;;;4017685;29;20127;-62
2023/01/21 05:42:20;;;;;;;25.33;18.98;;;15.70;62.10;;;;;;4017722;29;20056;-61
2023/01/21 05:45:01;;;;;;;29.02;19.30;;;15.70;62.30;;;;;;4017851;29;20059;-61
2023/01/21 05:47:42;;;;;;;26.48;19.25;;;15.60;62.50;;;;;;4017150;29;20057;-62
2023/01/21 05:50:24;;;;;;;27.08;17.83;;;15.50;62.60;;;;;;4017407;29;20055;-62
2023/01/21 05:53:06;;;;;;;26.33;18.23;;;15.50;62.90;;;;;;4017270;29;20803;-61
2023/01/21 05:55:50;;;;;;;24.60;17.50;;;15.40;63.10;;;;;;4017617;29;20065;-62
2023/01/21 05:58:31;;;;;;;27.50;19.30;;;15.30;63.50;;;;;;4017414;29;20056;-61
2023/01/21 06:01:12;;;;;;;27.40;18.90;;;15.20;63.80;;;;;;4017477;29;20132;-61
2023/01/21 06:03:53;;;;;;;26.08;18.60;;;15.20;64.10;;;;;;4017540;29;20795;-61
2023/01/21 06:06:35;;;;;;;29.80;19.70;;;15.30;64.20;;;;;;4004265;29;20078;-61
2023/01/21 06:09:16;;;;;;;27.50;17.55;;;15.40;64.00;;;;;;4017388;29;20093;-61
2023/01/21 06:11:57;;;;;;;24.48;17.70;;;15.40;63.60;;;;;;4017552;29;20614;-61
2023/01/21 06:14:38;;;;;;;26.88;19.58;;;15.60;63.40;;;;;;4017071;29;20065;-61
2023/01/21 06:17:19;;;;;;;27.83;19.23;;;15.70;62.90;;;;;;4017554;29;20052;-61
2023/01/21 06:20:00;;;;;;;28.10;19.38;;;15.80;62.50;;;;;;4017359;29;20064;-61
2023/01/21 06:22:42;;;;;;;28.35;19.23;;;15.80;62.10;;;;;;4002793;29;20098;-61
2023/01/21 06:25:23;;;;;;;28.65;19.23;;;15.80;61.80;;;;;;4016545;29;20473;-61
2023/01/21 06:28:04;;;;;;;27.23;18.00;;;15.90;62.00;;;;;;4017015;29;20057;-61
2023/01/21 06:30:45;;;;;;;23.98;17.52;;;15.90;62.20;;;;;;4016921;29;20065;-61
2023/01/21 06:33:26;;;;;;;27.05;19.45;;;15.90;62.10;;;;;;4017374;29;20533;-61
2023/01/21 06:36:08;;;;;;;25.58;18.35;;;15.90;62.70;;;;;;4011999;29;20397;-61
2023/01/21 06:38:50;;;;;;;26.27;18.67;;;16.00;61.60;;;;;;4017016;29;20065;-61
2023/01/21 06:41:31;;;;;;;26.42;18.63;;;16.00;61.50;;;;;;4017166;29;20079;-61
2023/01/21 06:44:12;;;;;;;25.88;18.48;;;16.00;61.60;;;;;;4016507;29;21533;-60
2023/01/21 06:46:53;;;;;;;26.10;17.80;;;16.00;61.50;;;;;;4016896;29;20052;-60
2023/01/21 06:49:42;;;;;;;24.88;17.83;;;16.00;61.40;;;;;;4016509;29;20144;-60
2023/01/21 06:52:23;;;;;;;24.88;18.42;;;15.90;61.30;;;;;;4016804;29;20065;-60
2023/01/21 06:55:06;;;;;;;24.00;17.52;;;15.90;61.60;;;;;;4012058;29;20056;-60
2023/01/21 06:57:46;;;;;;;26.05;18.27;;;15.90;61.90;;;;;;4016880;29;20100;-60
2023/01/21 07:00:27;;;;;;;25.02;17.80;;;15.90;62.80;;;;;;4016678;29;20059;-60
2023/01/21 07:03:08;;;;;;;24.33;18.00;;;15.90;61.70;;;;;;4016550;29;20096;-61
2023/01/21 07:05:49;;;;;;;25.67;18.35;;;15.90;61.60;;;;;;4001369;29;20079;-62
2023/01/21 07:08:30;;;;;;;22.35;16.23;;;15.90;61.50;;;;;;4001808;29;20052;-62
2023/01/21 07:11:12;;;;;;;23.50;17.88;;;16.00;62.30;;;;;;4001631;29;20406;-61
2023/01/21 07:13:54;;;;;;;24.08;17.58;;;16.00;62.00;;;;;;4002717;29;20052;-61
2023/01/21 07:16:35;;;;;;;28.17;18.38;;;16.10;62.10;;;;;;4016557;29;20531;-62
2023/01/21 07:19:15;;;;;;;23.48;17.55;;;16.00;61.90;;;;;;4005255;29;20060;-62
2023/01/21 07:21:56;;;;;;;24.85;18.80;;;16.00;61.70;;;;;;4016541;29;20057;-62
2023/01/21 07:24:37;;;;;;;24.25;17.77;;;16.00;61.70;;;;;;4016214;29;20059;-62
2023/01/21 07:27:19;;;;;;;27.88;18.40;;;16.00;62.20;;;;;;4001340;29;20057;-61
2023/01/21 07:30:00;;;;;;;26.67;18.02;;;15.90;62.00;;;;;;4001347;29;20064;-62
2023/01/21 07:32:41;;;;;;;26.95;18.33;;;15.90;62.10;;;;;;4011008;29;20057;-61
2023/01/21 07:35:22;;;;;;;46.42;30.08;;;15.80;62.30;;;;;;4015636;29;20186;-62
2023/01/21 07:38:03;;;;;;;31.00;22.77;;;15.70;62.50;;;;;;4009663;29;20104;-62
2023/01/21 07:40:43;;;;;;;27.45;18.88;;;15.60;62.70;;;;;;4016298;29;20064;-61
2023/01/21 07:43:26;;;;;;;24.27;18.63;;;15.60;63.00;;;;;;4015944;29;20072;-61
2023/01/21 07:46:08;;;;;;;24.77;17.88;;;15.60;63.20;;;;;;4015197;29;20060;-62
2023/01/21 07:48:50;;;;;;;26.25;19.02;;;15.70;63.10;;;;;;4016165;29;20064;-62
2023/01/21 07:51:31;;;;;;;29.88;20.42;;;15.70;62.70;;;;;;4013025;29;20129;-62
2023/01/21 07:54:13;;;;;;;31.98;24.60;;;15.70;62.60;;;;;;4016131;29;20122;-62
2023/01/21 07:56:54;;;;;;;;;;;15.70;62.70;;;;;;4019257;29;20063;-62
2023/01/21 07:59:36;;;;;;;35.55;26.92;;;15.80;63.00;;;;;;4019051;29;19934;-62
2023/01/21 08:02:17;;;;;;;29.10;20.38;;;15.80;62.80;;;;;;4018578;29;20051;-62
2023/01/21 08:04:58;;;;;;;28.50;20.08;;;15.80;62.50;;;;;;4004118;29;20060;-62
2023/01/21 08:07:39;;;;;;;26.50;19.23;;;15.70;62.70;;;;;;4019119;29;20130;-62
2023/01/21 08:10:21;;;;;;;24.55;18.00;;;15.80;62.70;;;;;;4018421;29;20484;-62
2023/01/21 08:13:02;;;;;;;25.83;19.35;;;15.80;62.50;;;;;;4018597;29;20088;-61
2023/01/21 08:15:44;;;;;;;;;;;15.90;62.30;;;;;;4016436;29;20064;-62
2023/01/21 08:18:26;;;;;;;24.95;18.02;;;15.90;62.30;;;;;;4018830;29;19935;-62
2023/01/21 08:21:07;;;;;;;24.70;17.90;;;15.90;62.10;;;;;;4016564;29;20591;-62
2023/01/21 08:23:47;;;;;;;24.35;18.00;;;16.00;61.90;;;;;;4007879;29;20513;-61
2023/01/21 08:26:28;;;;;;;25.40;18.73;;;16.00;62.10;;;;;;4019018;29;20061;-60
2023/01/21 08:29:09;;;;;;;27.17;20.58;;;16.00;61.80;;;;;;4018995;29;20297;-60
2023/01/21 08:31:52;;;;;;;26.63;19.17;;;16.00;61.70;;;;;;4006428;29;20073;-60
2023/01/21 08:34:33;;;;;;;25.88;17.58;;;16.00;61.40;;;;;;4013189;29;20061;-60
2023/01/21 08:37:14;;;;;;;26.40;18.77;;;16.00;61.30;;;;;;4017957;29;20069;-60
2023/01/21 08:39:55;;;;;;;24.08;17.58;;;15.90;62.50;;;;;;4018656;29;20134;-59
2023/01/21 08:42:36;;;;;;;24.67;18.15;;;15.80;61.60;;;;;;4003218;29;20534;-60
2023/01/21 08:45:16;;;;;;;25.45;18.45;;;15.70;62.00;;;;;;4009990;29;20056;-60
2023/01/21 08:48:01;;;;;;;27.95;19.48;;;15.60;62.40;;;;;;4018413;29;20056;-60
2023/01/21 08:50:43;;;;;;;26.27;19.25;;;15.50;63.60;;;;;;4013888;29;20083;-61
2023/01/21 08:53:24;;;;;;;28.75;20.13;;;15.50;63.10;;;;;;4018569;29;20061;-61
2023/01/21 08:56:05;;;;;;;28.15;20.08;;;15.50;63.00;;;;;;4018101;29;20071;-61
2023/01/21 08:58:46;;;;;;;29.02;18.45;;;15.40;62.90;;;;;;4018171;29;20060;-61
2023/01/21 09:01:28;;;;;;;27.25;19.30;;;15.40;62.60;;;;;;4018488;29;20520;-61
2023/01/21 09:04:10;;;;;;;28.00;19.48;;;15.30;62.40;;;;;;4018434;29;20052;-62
2023/01/21 09:06:51;;;;;;;28.38;18.80;;;15.20;63.10;;;;;;4017664;29;20053;-61
2023/01/21 09:09:32;;;;;;;29.73;20.02;;;15.10;62.60;;;;;;4007976;29;20048;-62
2023/01/21 09:12:13;;;;;;;32.63;20.30;;;15.10;63.10;;;;;;4018061;29;20496;-62
2023/01/21 09:14:54;;;;;;;28.38;20.13;;;15.10;62.90;;;;;;4006543;29;20402;-62
2023/01/21 09:17:34;;;;;;;29.23;20.20;;;15.20;62.50;;;;;;4017873;29;20409;-61
2023/01/21 09:20:17;;;;;;;29.58;20.27;;;15.20;62.10;;;;;;3991304;29;20073;-61
2023/01/21 09:22:58;;;;;;;27.80;19.45;;;15.30;61.30;;;;;;4006494;29;20071;-61
2023/01/21 09:25:39;;;;;;;28.13;19.58;;;15.30;61.10;;;;;;4014197;29;20405;-62
2023/01/21 09:28:21;;;;;;;27.58;19.98;;;15.30;61.70;;;;;;4016894;29;20511;-61
2023/01/21 09:31:04;;;;;;;26.02;19.13;;;15.30;61.80;;;;;;4017291;29;20060;-61
2023/01/21 09:33:47;;;;;;;28.98;19.48;;;15.40;61.40;;;;;;4002511;29;20508;-60
2023/01/21 09:36:31;;;;;;;28.70;20.45;;;15.40;61.00;;;;;;4015873;29;20148;-60
2023/01/21 09:39:12;;;;;;;26.35;18.60;;;15.40;60.80;;;;;;4017200;29;20056;-61
2023/01/21 09:41:54;;;;;;;29.25;20.25;;;15.50;61.10;;;;;;4017818;29;20064;-61
2023/01/21 09:44:43;;;;;;;31.05;20.02;;;15.50;60.80;;;;;;4016442;29;20414;-61
2023/01/21 09:47:28;;;;;;;28.27;20.17;;;15.50;60.90;;;;;;4005345;29;20081;-61
2023/01/21 09:50:15;;;;;;;26.05;18.85;;;15.50;60.80;;;;;;4017457;29;20052;-61
2023/01/21 09:53:05;;;;;;;26.75;19.80;;;15.60;60.60;;;;;;4017401;29;20052;-61
2023/01/21 09:55:49;;;;;;;27.90;18.90;;;15.50;60.30;;;;;;4016859;29;20626;-61
2023/01/21 09:58:35;;;;;;;27.35;18.63;;;15.50;60.40;;;;;;4014947;29;20162;-61
2023/01/21 10:01:24;;;;;;;27.63;18.48;;;15.40;60.50;;;;;;4016732;29;20517;-63
2023/01/21 10:04:27;;;;;;;24.73;18.20;;;15.30;60.70;;;;;;4016796;29;20053;-61
2023/01/21 10:07:14;;;;;;;27.55;18.48;;;15.20;61.10;;;;;;4016702;29;20055;-61
2023/01/21 10:10:11;;;;;;;25.83;17.88;;;15.20;61.40;;;;;;4016405;29;20069;-62
2023/01/21 10:13:13;;;;;;;26.48;17.75;;;15.20;61.10;;;;;;4016249;29;20056;-62
2023/01/21 10:16:02;;;;;;;25.10;16.85;;;15.20;62.10;;;;;;4016491;29;20056;-60
2023/01/21 10:18:47;;;;;;;25.98;17.70;;;15.20;61.40;;;;;;4016968;29;20068;-61
2023/01/21 10:21:32;;;;;;;23.40;16.73;;;15.30;61.10;;;;;;4017112;29;20510;-61
2023/01/21 10:24:18;;;;;;;22.83;16.23;;;15.40;60.70;;;;;;4016926;29;20053;-60
2023/01/21 10:27:00;;;;;;;21.73;15.85;;;15.50;60.40;;;;;;4016515;29;20136;-61
2023/01/21 10:29:42;;;;;;;21.52;15.07;;;15.70;60.60;;;;;;4002152;29;20410;-60
2023/01/21 10:32:25;;;;;;;;;;;15.80;60.60;;;;;;4011543;29;20069;-60
2023/01/21 10:35:17;;;;;;;20.52;15.40;;;15.90;60.30;;;;;;4016753;29;19939;-60
2023/01/21 10:38:07;;;;;;;19.13;13.73;;;16.00;59.90;;;;;;4014012;29;20557;-61
2023/01/21 10:40:55;;;;;;;21.27;15.38;;;16.20;59.90;;;;;;4016960;29;20516;-60
2023/01/21 10:43:43;;;;;;;18.17;14.65;;;16.40;59.60;;;;;;4016814;29;20413;-61
2023/01/21 10:46:33;;;;;;;20.70;15.07;;;16.50;60.00;;;;;;4016736;29;20068;-61
2023/01/21 10:49:27;;;;;;;19.30;14.45;;;16.60;59.10;;;;;;4017011;29;20059;-61
2023/01/21 10:52:12;;;;;;;18.30;13.75;;;16.70;59.00;;;;;;4016406;29;20053;-61
2023/01/21 10:55:02;;;;;;;15.50;12.55;;;16.80;58.80;;;;;;4016892;29;20136;-60
2023/01/21 10:57:58;;;;;;;16.77;12.52;;;16.80;58.70;;;;;;4016153;29;20105;-61
2023/01/21 11:00:44;;;;;;;17.58;13.18;;;16.70;58.70;;;;;;4000984;29;20057;-60
2023/01/21 11:03:32;;;;;;;15.68;12.63;;;16.60;59.10;;;;;;4010231;29;20400;-61
2023/01/21 11:06:17;;;;;;;19.85;12.52;;;16.50;59.30;;;;;;4016240;29;20071;-60
2023/01/21 11:09:02;;;;;;;18.58;14.38;;;16.40;59.60;;;;;;4016123;29;20125;-60
2023/01/21 11:11:45;;;;;;;18.58;15.15;;;16.30;59.80;;;;;;4016201;29;20117;-60
2023/01/21 11:14:26;;;;;;;20.92;15.43;;;16.20;60.30;;;;;;4015658;29;20059;-60
2023/01/21 11:17:09;;;;;;;19.65;15.13;;;16.20;60.80;;;;;;4015943;29;20534;-60
2023/01/21 11:19:59;;;;;;;19.13;13.98;;;16.20;60.80;;;;;;4016257;29;20068;-60
2023/01/21 11:22:44;;;;;;;20.30;14.48;;;16.10;60.90;;;;;;4016438;29;20063;-60
2023/01/21 11:25:28;;;;;;;17.67;12.93;;;16.10;61.20;;;;;;4001387;29;20505;-60
2023/01/21 11:28:23;;;;;;;17.15;13.75;;;16.20;61.20;;;;;;4005546;29;20052;-60
2023/01/21 11:31:12;;;;;;;17.27;13.43;;;16.20;60.90;;;;;;4017261;29;20138;-59
2023/01/21 11:33:55;;;;;;;16.83;13.18;;;16.30;60.90;;;;;;4008649;29;20416;-59
2023/01/21 11:36:37;;;;;;;15.88;12.73;;;16.30;60.80;;;;;;4019409;29;20211;-60
2023/01/21 11:39:17;;;;;;;18.17;13.32;;;16.30;61.20;;;;;;4019277;29;20045;-60
2023/01/21 11:42:04;;;;;;;15.82;12.38;;;16.30;60.80;;;;;;4019055;29;20133;-60
2023/01/21 11:44:52;;;;;;;14.48;11.60;;;16.30;61.10;;;;;;4009076;29;20492;-60
2023/01/21 11:47:38;;;;;;;13.65;11.35;;;16.30;61.00;;;;;;4019463;29;20109;-60
2023/01/21 11:50:27;;;;;;;15.00;10.95;;;16.30;61.20;;;;;;4019199;29;20064;-60
2023/01/21 11:53:16;;;;;;;11.63;9.85;;;16.30;61.10;;;;;;4011370;29;20417;-60
2023/01/21 11:55:58;;;;;;;13.95;11.18;;;16.20;61.20;;;;;;4018676;29;20125;-60
2023/01/21 11:58:41;;;;;;;13.63;10.73;;;16.20;61.40;;;;;;4019029;29;20053;-61
2023/01/21 12:01:22;;;;;;;14.32;10.65;;;16.10;61.50;;;;;;4018320;29;20061;-61
2023/01/21 12:04:03;;;;;;;13.35;11.32;;;16.00;61.90;;;;;;4018986;29;20061;-61
2023/01/21 12:06:50;;;;;;;14.38;9.70;;;16.00;62.40;;;;;;4019275;29;20453;-61
2023/01/21 12:09:31;;;;;;;12.73;10.60;;;16.10;62.40;;;;;;4018905;29;20056;-62
2023/01/21 12:12:26;;;;;;;10.57;8.93;;;16.20;62.10;;;;;;4018662;29;20060;-61
2023/01/21 12:15:21;;;;;;;11.05;8.70;;;16.30;61.30;;;;;;4018175;29;20056;-61
2023/01/21 12:18:14;;;;;;;8.15;7.35;;;16.40;60.90;;;;;;4019019;29;20052;-60
2023/01/21 12:21:01;;;;;;;9.52;7.60;;;16.40;60.30;;;;;;4018254;29;20056;-60
2023/01/21 12:23:57;;;;;;;7.40;6.63;;;16.50;59.80;;;;;;4019212;29;20055;-60
2023/01/21 12:26:44;;;;;;;8.35;7.10;;;16.50;59.20;;;;;;4006206;29;20068;-60
2023/01/21 12:29:45;;;;;;;7.00;6.38;;;16.60;59.10;;;;;;4018706;29;20496;-60
2023/01/21 12:32:27;;;;;;;;;;;16.50;58.60;;;;;;4004119;29;20191;-60
2023/01/21 12:35:15;;;;;;;7.07;6.38;;;16.50;58.80;;;;;;4003490;29;19930;-60
2023/01/21 12:38:00;;;;;;;6.85;6.03;;;16.40;58.90;;;;;;4016329;29;20052;-60
2023/01/21 12:40:51;;;;;;;6.07;5.50;;;16.40;59.00;;;;;;4018115;29;20081;-61
2023/01/21 12:43:35;;;;;;;7.28;4.75;;;16.20;59.20;;;;;;4011176;29;20060;-60
2023/01/21 12:46:20;;;;;;;6.15;5.05;;;16.20;59.30;;;;;;4017986;29;20060;-61
2023/01/21 12:49:04;;;;;;;5.35;4.85;;;16.10;59.40;;;;;;4018233;29;20060;-61
2023/01/21 12:51:49;;;;;;;5.05;4.13;;;16.00;59.60;;;;;;4015772;29;20116;-61
2023/01/21 12:54:40;;;;;;;4.60;4.20;;;16.00;59.70;;;;;;4018245;29;20496;-62
2023/01/21 12:57:28;;;;;;;4.97;4.45;;;15.90;59.90;;;;;;4017291;29;20077;-60
2023/01/21 13:00:18;;;;;;;5.95;4.97;;;15.90;59.80;;;;;;4018207;29;20056;-61
2023/01/21 13:03:11;;;;;;;6.15;5.55;;;15.80;59.60;;;;;;4017694;29;20068;-61
2023/01/21 13:05:57;;;;;;;5.20;4.80;;;15.70;59.30;;;;;;4018038;29;20133;-60
2023/01/21 13:08:49;;;;;;;5.78;5.15;;;15.70;59.70;;;;;;4018257;29;20057;-60
2023/01/21 13:11:35;;;;;;;5.28;4.78;;;15.60;59.40;;;;;;4017637;29;20511;-61
2023/01/21 13:14:26;;;;;;;5.55;5.05;;;15.50;59.70;;;;;;4017909;29;20068;-59
2023/01/21 13:17:14;;;;;;;5.05;4.63;;;15.50;59.90;;;;;;4018506;29;20681;-61
2023/01/21 13:19:55;;;;;;;5.55;5.10;;;15.60;60.00;;;;;;4018218;29;20059;-60
2023/01/21 13:22:40;;;;;;;5.13;4.72;;;15.70;59.90;;;;;;4017672;29;20051;-60
2023/01/21 13:25:29;;;;;;;5.85;4.40;;;15.70;59.70;;;;;;4017266;29;20512;-61
2023/01/21 13:28:20;;;;;;;5.93;4.72;;;15.70;58.90;;;;;;4017195;29;20073;-60
2023/01/21 13:31:11;;;;;;;5.73;5.23;;;15.60;59.40;;;;;;4017947;29;20052;-60
2023/01/21 13:34:01;;;;;;;6.10;4.90;;;15.60;59.70;;;;;;4015962;29;20061;-58
2023/01/21 13:36:53;;;;;;;4.57;4.18;;;15.50;60.30;;;;;;4017684;29;20225;-60
2023/01/21 13:39:44;;;;;;;4.88;4.45;;;15.40;60.20;;;;;;4017073;29;20422;-59
2023/01/21 13:42:35;;;;;;;4.90;4.43;;;15.30;60.70;;;;;;4016957;29;20664;-59
2023/01/21 13:45:23;;;;;;;;;;;15.30;61.50;;;;;;4017984;29;20405;-60
2023/01/21 13:48:37;;;;;;;4.60;4.20;;;15.20;62.10;;;;;;4015641;29;20730;-60
2023/01/21 13:51:29;;;;;;;3.53;3.22;;;15.10;61.80;;;;;;4017064;29;20057;-60
2023/01/21 13:54:41;;;;;;;6.05;4.55;;;15.00;62.40;;;;;;4016132;29;20057;-60
2023/01/21 13:57:51;;;;;;;3.85;3.55;;;14.90;62.40;;;;;;4017353;29;20069;-60
2023/01/21 14:00:36;;;;;;;3.92;3.63;;;14.80;63.00;;;;;;4017009;29;20526;-60
2023/01/21 14:03:27;;;;;;;3.90;3.60;;;14.80;63.60;;;;;;4001834;29;20057;-59